Time;durP1;ratioP1;P1;durP2;ratioP2;P2;SDS_P1;SDS_P2;PMS_P1;PMS_P2;Temp;Humidity;BMP_temperature;BMP_pressure;BME280_temperature;BME280_humidity;BME280_pressure;Samples;Min_cycle;Max_cycle;Signal;HPM_P1;HPM_P2
2021/06/03 00:02:08;;;;;;;4.97;4.50;;;15.80;99.90;;;;;;5091876;28;20435;-70
2021/06/03 00:04:34;;;;;;;6.73;4.70;;;15.80;99.90;;;;;;5092202;28;20965;-69
2021/06/03 00:07:01;;;;;;;12.43;5.00;;;15.70;99.90;;;;;;5092021;28;20463;-69
2021/06/03 00:09:30;;;;;;;16.37;5.17;;;15.80;99.90;;;;;;5091956;28;20421;-70
2021/06/03 00:11:57;;;;;;;5.40;4.43;;;15.70;99.90;;;;;;5092070;28;20429;-69
2021/06/03 00:14:24;;;;;;;6.93;4.43;;;15.80;99.90;;;;;;5092330;28;20512;-70
2021/06/03 00:16:51;;;;;;;5.50;4.97;;;15.80;99.90;;;;;;5091736;28;20463;-70
2021/06/03 00:19:17;;;;;;;7.20;4.43;;;15.70;99.90;;;;;;5085026;28;20434;-69
2021/06/03 00:21:45;;;;;;;5.27;4.77;;;15.70;99.90;;;;;;5076097;28;20498;-70
2021/06/03 00:24:12;;;;;;;12.47;5.03;;;15.70;99.90;;;;;;5071815;28;20806;-70
2021/06/03 00:26:40;;;;;;;5.57;4.90;;;15.60;99.90;;;;;;5071420;28;20453;-70
2021/06/03 00:29:09;;;;;;;5.40;4.50;;;15.60;99.90;;;;;;5071655;28;20445;-71
2021/06/03 00:31:36;;;;;;;6.60;4.90;;;15.60;99.90;;;;;;5071634;28;20442;-70
2021/06/03 00:34:03;;;;;;;5.07;4.53;;;15.50;99.90;;;;;;5077070;28;20816;-69
2021/06/03 00:36:29;;;;;;;6.90;4.63;;;15.60;99.90;;;;;;5086303;28;21093;-70
2021/06/03 00:38:56;;;;;;;6.77;4.33;;;15.60;99.90;;;;;;5071110;28;20477;-70
2021/06/03 00:41:23;;;;;;;5.07;4.57;;;15.50;99.90;;;;;;5072722;28;20437;-70
2021/06/03 00:43:51;;;;;;;5.37;4.70;;;15.50;99.90;;;;;;5083393;28;20446;-70
2021/06/03 00:46:18;;;;;;;5.00;4.50;;;15.50;99.90;;;;;;5075266;28;20444;-70
2021/06/03 00:48:45;;;;;;;5.10;4.50;;;15.40;99.90;;;;;;5091304;28;20441;-69
2021/06/03 00:51:12;;;;;;;5.30;4.80;;;15.40;99.90;;;;;;5091593;28;20520;-70
2021/06/03 00:53:42;;;;;;;6.53;4.83;;;15.40;99.90;;;;;;5091770;28;20425;-70
2021/06/03 00:56:12;;;;;;;5.30;4.77;;;15.50;99.90;;;;;;5091748;28;20949;-69
2021/06/03 00:58:39;;;;;;;9.13;4.67;;;15.50;99.90;;;;;;5091462;28;20464;-70
2021/06/03 01:01:07;;;;;;;5.23;4.13;;;15.50;99.90;;;;;;5091485;28;20433;-70
2021/06/03 01:03:34;;;;;;;6.07;4.40;;;15.40;99.90;;;;;;5091404;28;20455;-70
2021/06/03 01:06:03;;;;;;;5.13;4.63;;;15.40;99.90;;;;;;5089737;28;20441;-70
2021/06/03 01:08:33;;;;;;;5.07;4.30;;;15.40;99.90;;;;;;5071028;28;20460;-70
2021/06/03 01:11:06;;;;;;;12.40;5.47;;;15.40;99.90;;;;;;5071094;28;20444;-69
2021/06/03 01:13:39;;;;;;;4.73;4.17;;;15.40;99.90;;;;;;5070977;28;20945;-69
2021/06/03 01:16:08;;;;;;;7.03;4.57;;;15.40;99.90;;;;;;5071071;28;20445;-70
2021/06/03 01:18:38;;;;;;;5.43;4.70;;;15.40;99.90;;;;;;5070770;28;20481;-71
2021/06/03 01:21:09;;;;;;;4.90;4.37;;;15.40;99.90;;;;;;5071127;28;20421;-71
2021/06/03 01:23:40;;;;;;;6.07;4.47;;;15.40;99.90;;;;;;5071263;28;20426;-70
2021/06/03 01:26:09;;;;;;;4.80;4.20;;;15.40;99.90;;;;;;5071400;28;20528;-70
2021/06/03 01:28:36;;;;;;;4.53;4.03;;;15.40;99.90;;;;;;5070953;28;20445;-70
2021/06/03 01:31:04;;;;;;;6.10;4.47;;;15.50;99.90;;;;;;5070979;28;20455;-71
2021/06/03 01:33:33;;;;;;;7.50;4.60;;;15.50;99.90;;;;;;5072816;28;20498;-69
2021/06/03 01:36:03;;;;;;;4.00;3.60;;;15.50;99.90;;;;;;5089542;28;20445;-71
2021/06/03 01:38:35;;;;;;;4.60;4.20;;;15.50;99.90;;;;;;5084343;28;20484;-70
2021/06/03 01:41:06;;;;;;;5.53;5.03;;;15.50;99.90;;;;;;5094736;28;20466;-70
2021/06/03 01:43:36;;;;;;;5.17;4.47;;;15.50;99.90;;;;;;5091031;28;20460;-70
2021/06/03 01:46:04;;;;;;;4.47;4.07;;;15.50;99.90;;;;;;5086276;28;20434;-70
2021/06/03 01:48:31;;;;;;;5.47;4.40;;;15.50;99.90;;;;;;5094239;28;20457;-69
2021/06/03 01:51:00;;;;;;;6.27;4.40;;;15.50;99.90;;;;;;5094417;28;20443;-71
2021/06/03 01:53:28;;;;;;;5.00;4.50;;;15.40;99.90;;;;;;5094545;28;20769;-70
2021/06/03 01:55:59;;;;;;;5.07;4.40;;;15.50;99.90;;;;;;5094636;28;20421;-70
2021/06/03 01:58:27;;;;;;;4.60;4.13;;;15.50;99.90;;;;;;5094285;28;20476;-71
2021/06/03 02:00:55;;;;;;;6.50;5.37;;;15.40;99.90;;;;;;5094569;28;20428;-70
2021/06/03 02:03:22;;;;;;;4.50;4.10;;;15.40;99.90;;;;;;5094303;28;20445;-70
2021/06/03 02:05:49;;;;;;;5.43;4.17;;;15.40;99.90;;;;;;5093935;28;20440;-69
2021/06/03 02:08:16;;;;;;;5.83;4.17;;;15.40;99.90;;;;;;5073944;28;20446;-70
2021/06/03 02:10:43;;;;;;;4.77;3.63;;;15.40;99.90;;;;;;5074092;28;20778;-70
2021/06/03 02:13:14;;;;;;;5.00;4.47;;;15.40;99.90;;;;;;5073837;28;20433;-70
2021/06/03 02:15:47;;;;;;;8.13;4.50;;;15.40;99.90;;;;;;5074120;28;20752;-70
2021/06/03 02:18:17;;;;;;;4.00;3.60;;;15.40;99.90;;;;;;5073612;28;20469;-70
2021/06/03 02:20:47;;;;;;;4.83;4.43;;;15.40;99.90;;;;;;5073764;28;20837;-70
2021/06/03 02:23:16;;;;;;;5.67;4.53;;;15.30;99.90;;;;;;5074070;28;20438;-70
2021/06/03 02:25:43;;;;;;;6.77;5.47;;;15.30;99.90;;;;;;5073995;28;20422;-70
2021/06/03 02:28:12;;;;;;;5.87;4.83;;;15.30;99.90;;;;;;5073517;28;20499;-70
2021/06/03 02:30:38;;;;;;;5.10;4.50;;;15.30;99.90;;;;;;5073544;28;20434;-70
2021/06/03 02:33:06;;;;;;;5.90;4.93;;;15.30;99.90;;;;;;5073663;28;20428;-71
2021/06/03 02:35:34;;;;;;;7.00;5.10;;;15.30;99.90;;;;;;5091653;28;20486;-69
2021/06/03 02:38:01;;;;;;;4.53;4.13;;;15.40;99.90;;;;;;5076551;28;20483;-70
2021/06/03 02:40:30;;;;;;;6.43;5.50;;;15.30;99.90;;;;;;5093597;28;20486;-71
2021/06/03 02:42:58;;;;;;;6.60;4.70;;;15.30;99.90;;;;;;5091616;28;20483;-69
2021/06/03 02:45:27;;;;;;;6.10;4.50;;;15.20;99.90;;;;;;5080893;28;20448;-69
2021/06/03 02:47:58;;;;;;;5.70;5.13;;;15.20;99.90;;;;;;5090478;28;20449;-71
2021/06/03 02:50:26;;;;;;;4.80;4.30;;;15.20;99.90;;;;;;5092770;28;20505;-69
2021/06/03 02:52:57;;;;;;;10.70;5.20;;;15.20;99.90;;;;;;5093613;28;20809;-69
2021/06/03 02:55:25;;;;;;;6.07;5.47;;;15.10;99.90;;;;;;5093459;28;20425;-70
2021/06/03 02:57:52;;;;;;;7.50;4.90;;;15.10;99.90;;;;;;5093196;28;20481;-71
2021/06/03 03:00:21;;;;;;;5.57;4.33;;;15.10;99.90;;;;;;5093028;28;20931;-70
2021/06/03 03:02:48;;;;;;;6.40;5.70;;;15.10;99.90;;;;;;5093123;28;20439;-71
2021/06/03 03:05:16;;;;;;;6.23;4.90;;;15.10;99.90;;;;;;5092664;28;20918;-70
2021/06/03 03:07:43;;;;;;;5.87;4.80;;;15.00;99.90;;;;;;5077715;28;20540;-70
2021/06/03 03:10:13;;;;;;;10.83;4.90;;;15.00;99.90;;;;;;5072749;28;20513;-70
2021/06/03 03:12:40;;;;;;;6.33;5.10;;;15.00;99.90;;;;;;5073011;28;20483;-69
2021/06/03 03:15:09;;;;;;;5.43;4.87;;;15.00;99.90;;;;;;5078792;28;20512;-70
2021/06/03 03:17:36;;;;;;;4.70;4.20;;;14.90;99.90;;;;;;5088286;28;20483;-70
2021/06/03 03:20:05;;;;;;;5.00;4.50;;;14.90;99.90;;;;;;5089873;28;20459;-70
2021/06/03 03:22:31;;;;;;;5.17;4.67;;;14.90;99.90;;;;;;5072483;28;20429;-70
2021/06/03 03:24:58;;;;;;;5.73;5.13;;;14.90;99.90;;;;;;5072555;28;20426;-69
2021/06/03 03:27:26;;;;;;;10.43;6.60;;;14.80;99.90;;;;;;5072339;28;21042;-72
2021/06/03 03:29:53;;;;;;;6.57;4.60;;;14.80;99.90;;;;;;5072096;28;20856;-70
2021/06/03 03:32:20;;;;;;;6.50;5.77;;;14.90;99.90;;;;;;5075515;28;20429;-69
2021/06/03 03:34:46;;;;;;;7.17;5.37;;;14.80;99.90;;;;;;5092136;28;20432;-70
2021/06/03 03:37:13;;;;;;;5.93;5.30;;;14.80;99.90;;;;;;5080695;28;20446;-71
2021/06/03 03:39:40;;;;;;;5.87;4.83;;;14.70;99.90;;;;;;5083109;28;20453;-70
2021/06/03 03:42:07;;;;;;;11.00;5.50;;;14.70;99.90;;;;;;5092373;28;20456;-70
2021/06/03 03:44:35;;;;;;;6.30;5.67;;;14.70;99.90;;;;;;5092319;28;20425;-70
2021/06/03 03:47:02;;;;;;;7.17;5.00;;;14.70;99.90;;;;;;5092095;28;20461;-71
2021/06/03 03:49:28;;;;;;;5.30;4.80;;;14.70;99.90;;;;;;5091806;28;20452;-70
2021/06/03 03:51:55;;;;;;;7.27;4.27;;;14.80;99.90;;;;;;5089505;28;20445;-70
2021/06/03 03:54:22;;;;;;;7.87;4.80;;;14.80;99.90;;;;;;5078006;28;20442;-71
2021/06/03 03:56:49;;;;;;;4.70;4.30;;;14.80;99.90;;;;;;5088314;28;20449;-71
2021/06/03 03:59:15;;;;;;;5.70;5.10;;;14.80;99.90;;;;;;5091174;28;20480;-70
2021/06/03 04:01:45;;;;;;;5.53;5.03;;;14.70;99.90;;;;;;5091965;28;20472;-71
2021/06/03 04:04:11;;;;;;;8.67;5.80;;;14.60;99.90;;;;;;5091947;28;20437;-70
2021/06/03 04:06:38;;;;;;;5.63;5.07;;;14.60;99.90;;;;;;5085328;28;20545;-71
2021/06/03 04:09:06;;;;;;;8.57;4.93;;;14.60;99.90;;;;;;5071915;28;20437;-70
2021/06/03 04:11:32;;;;;;;10.80;4.23;;;14.60;99.90;;;;;;5086697;28;20520;-72
2021/06/03 04:13:59;;;;;;;8.97;5.57;;;14.70;99.90;;;;;;5092409;28;20554;-70
2021/06/03 04:16:26;;;;;;;6.30;4.90;;;14.70;99.90;;;;;;5091938;28;20433;-70
2021/06/03 04:18:54;;;;;;;7.20;5.23;;;14.70;99.90;;;;;;5091885;28;20460;-71
2021/06/03 04:21:21;;;;;;;8.70;5.23;;;14.70;99.90;;;;;;5091792;28;20624;-72
2021/06/03 04:23:47;;;;;;;5.30;4.80;;;14.70;99.90;;;;;;5090310;28;20428;-70
2021/06/03 04:26:14;;;;;;;4.87;4.37;;;14.60;99.90;;;;;;5083525;28;20447;-70
2021/06/03 04:28:41;;;;;;;8.50;6.30;;;14.60;99.90;;;;;;5083138;28;20519;-71
2021/06/03 04:31:09;;;;;;;6.30;4.63;;;14.60;99.90;;;;;;5080309;28;20445;-70
2021/06/03 04:33:38;;;;;;;6.90;5.30;;;14.70;99.90;;;;;;5073799;28;20429;-70
2021/06/03 04:36:07;;;;;;;5.50;5.00;;;14.70;99.90;;;;;;5089268;28;20437;-70
2021/06/03 04:38:35;;;;;;;6.07;5.00;;;14.60;99.90;;;;;;5071194;28;20539;-70
2021/06/03 04:41:01;;;;;;;6.67;5.47;;;14.60;99.90;;;;;;5071514;28;20495;-71
2021/06/03 04:43:28;;;;;;;5.70;5.17;;;14.70;99.90;;;;;;5084091;28;20435;-70
2021/06/03 04:45:55;;;;;;;6.43;4.70;;;14.70;99.90;;;;;;5091755;28;20432;-69
2021/06/03 04:48:22;;;;;;;6.63;4.93;;;14.70;99.90;;;;;;5078234;28;20468;-70
2021/06/03 04:50:49;;;;;;;5.77;5.27;;;14.70;99.90;;;;;;5071261;28;20425;-70
2021/06/03 04:53:18;;;;;;;6.87;5.23;;;14.70;99.90;;;;;;5071155;28;20422;-70
2021/06/03 04:55:45;;;;;;;6.07;5.10;;;14.70;99.90;;;;;;5075194;28;20449;-70
2021/06/03 04:58:13;;;;;;;6.63;4.27;;;14.80;99.90;;;;;;5076428;28;20834;-71
2021/06/03 05:00:41;;;;;;;12.33;5.27;;;14.90;99.90;;;;;;5086524;28;20428;-70
2021/06/03 05:03:10;;;;;;;9.93;7.30;;;14.90;99.90;;;;;;5079361;28;20441;-71
2021/06/03 05:05:38;;;;;;;6.80;4.90;;;15.00;99.90;;;;;;5090155;28;20993;-70
2021/06/03 05:08:06;;;;;;;9.00;5.20;;;15.10;99.90;;;;;;5072544;28;20458;-71
2021/06/03 05:10:35;;;;;;;7.20;5.20;;;15.20;99.90;;;;;;5071183;28;20491;-70
2021/06/03 05:13:03;;;;;;;5.83;5.10;;;15.30;99.90;;;;;;5071424;28;20952;-70
2021/06/03 05:15:30;;;;;;;7.97;5.60;;;15.30;99.90;;;;;;5074736;28;20457;-70
2021/06/03 05:17:57;;;;;;;10.43;6.73;;;15.30;99.90;;;;;;5074752;28;20474;-70
2021/06/03 05:20:26;;;;;;;5.90;5.40;;;15.30;99.90;;;;;;5090307;28;20433;-70
2021/06/03 05:22:54;;;;;;;6.33;5.23;;;15.40;99.90;;;;;;5094942;28;20938;-71
2021/06/03 05:25:23;;;;;;;6.93;5.90;;;15.40;99.90;;;;;;5095165;28;20512;-70
2021/06/03 05:27:52;;;;;;;6.80;5.47;;;15.50;99.90;;;;;;5094904;28;20461;-70
2021/06/03 05:30:20;;;;;;;5.87;5.13;;;15.50;99.90;;;;;;5094555;28;20449;-70
2021/06/03 05:32:46;;;;;;;6.60;6.00;;;15.60;99.90;;;;;;5094741;28;20433;-70
2021/06/03 05:35:17;;;;;;;10.13;5.40;;;15.60;99.90;;;;;;5093774;28;20441;-70
2021/06/03 05:37:44;;;;;;;7.30;5.30;;;15.70;99.90;;;;;;5079132;28;20457;-70
2021/06/03 05:40:13;;;;;;;8.93;5.23;;;15.80;99.90;;;;;;5074324;28;20438;-70
2021/06/03 05:42:43;;;;;;;7.27;5.60;;;15.90;99.90;;;;;;5074641;28;20918;-71
2021/06/03 05:45:12;;;;;;;6.53;5.93;;;16.00;99.90;;;;;;5074300;28;20497;-71
2021/06/03 05:47:39;;;;;;;5.70;5.13;;;16.10;99.90;;;;;;5074434;28;20457;-70
2021/06/03 05:50:09;;;;;;;7.93;6.00;;;16.20;99.90;;;;;;5073770;28;20434;-70
2021/06/03 05:52:36;;;;;;;6.60;5.90;;;16.30;99.90;;;;;;5074399;28;20438;-70
2021/06/03 05:55:04;;;;;;;5.20;4.77;;;16.30;99.90;;;;;;5074283;28;20922;-70
2021/06/03 05:57:31;;;;;;;5.93;5.40;;;16.40;99.90;;;;;;5073952;28;20465;-69
2021/06/03 05:59:58;;;;;;;6.13;5.53;;;16.40;99.90;;;;;;5076516;28;20460;-70
2021/06/03 06:02:30;;;;;;;6.40;4.37;;;16.50;99.90;;;;;;5092915;28;20436;-70
2021/06/03 06:07:42;;;;;;;8.73;4.47;;;16.70;99.90;;;;;;5094275;28;20444;-70
2021/06/03 06:10:09;;;;;;;6.00;4.70;;;16.70;99.90;;;;;;5093785;28;20810;-71
2021/06/03 06:12:36;;;;;;;4.63;4.20;;;16.70;99.90;;;;;;5094497;28;20436;-70
2021/06/03 06:15:03;;;;;;;5.33;4.83;;;16.80;99.90;;;;;;5094134;28;20445;-69
2021/06/03 06:17:31;;;;;;;6.57;5.50;;;16.80;99.90;;;;;;5093023;28;20457;-70
2021/06/03 06:19:58;;;;;;;5.07;4.40;;;16.80;99.90;;;;;;5079318;28;20463;-70
2021/06/03 06:22:25;;;;;;;5.43;4.30;;;16.80;99.90;;;;;;5073101;28;20934;-71
2021/06/03 06:24:51;;;;;;;6.20;5.60;;;16.80;99.90;;;;;;5085797;28;20449;-70
2021/06/03 06:27:18;;;;;;;4.87;4.23;;;16.70;99.90;;;;;;5093919;28;20445;-70
2021/06/03 06:29:45;;;;;;;4.70;4.30;;;16.70;99.90;;;;;;5093591;28;20449;-70
2021/06/03 06:32:12;;;;;;;5.00;4.60;;;16.80;99.90;;;;;;5093806;28;20443;-69
2021/06/03 06:34:40;;;;;;;5.70;4.20;;;16.70;99.90;;;;;;5093413;28;20425;-70
2021/06/03 06:37:07;;;;;;;5.50;4.80;;;16.70;99.90;;;;;;5082951;28;20452;-70
2021/06/03 06:39:33;;;;;;;5.77;4.07;;;16.70;99.90;;;;;;5073354;28;20981;-70
2021/06/03 06:42:00;;;;;;;6.47;5.03;;;16.60;99.90;;;;;;5073458;28;20432;-70
2021/06/03 06:44:27;;;;;;;4.37;3.97;;;16.70;99.90;;;;;;5073599;28;20427;-70
2021/06/03 06:46:54;;;;;;;6.00;4.47;;;16.60;99.90;;;;;;5073489;28;20456;-70
2021/06/03 06:49:21;;;;;;;4.83;4.40;;;16.60;99.90;;;;;;5072828;28;20430;-70
2021/06/03 06:51:49;;;;;;;4.40;4.00;;;16.70;99.90;;;;;;5073196;28;20445;-70
2021/06/03 06:54:16;;;;;;;6.47;4.27;;;16.70;99.90;;;;;;5073301;28;20426;-70
2021/06/03 06:56:43;;;;;;;5.10;4.60;;;16.70;99.90;;;;;;5073398;28;20818;-69
2021/06/03 06:59:10;;;;;;;4.47;4.07;;;16.80;99.90;;;;;;5072856;28;20481;-69
2021/06/03 07:01:37;;;;;;;4.83;4.33;;;16.70;99.90;;;;;;5073168;28;20423;-69
2021/06/03 07:04:04;;;;;;;3.80;3.13;;;16.80;99.90;;;;;;5079802;28;20421;-69
2021/06/03 07:06:30;;;;;;;3.87;3.57;;;16.80;99.90;;;;;;5087023;28;20441;-69
2021/06/03 07:08:58;;;;;;;5.23;3.57;;;16.80;99.90;;;;;;5072652;28;20444;-70
2021/06/03 07:11:25;;;;;;;3.60;3.30;;;16.80;99.90;;;;;;5072988;28;20422;-70
2021/06/03 07:13:52;;;;;;;4.20;3.57;;;16.80;99.90;;;;;;5072957;28;20429;-70
2021/06/03 07:16:19;;;;;;;3.33;3.03;;;16.90;99.90;;;;;;5072890;28;20446;-70
2021/06/03 07:18:45;;;;;;;4.63;2.77;;;16.80;99.90;;;;;;5072509;28;20997;-70
2021/06/03 07:24:40;;;;;;;2.90;2.60;;;16.80;99.90;;;;;;5072841;28;20389;-70
2021/06/03 07:27:07;;;;;;;4.13;3.17;;;16.90;99.90;;;;;;5091052;28;20836;-70
2021/06/03 07:29:34;;;;;;;2.83;2.53;;;16.90;99.90;;;;;;5077472;28;20458;-70
2021/06/03 07:32:01;;;;;;;3.43;3.00;;;16.90;99.90;;;;;;5080221;28;20427;-71
2021/06/03 07:34:28;;;;;;;3.70;3.40;;;16.90;99.90;;;;;;5091982;28;20793;-70
2021/06/03 07:36:56;;;;;;;3.33;3.03;;;16.90;99.90;;;;;;5090762;28;20449;-71
2021/06/03 07:39:23;;;;;;;4.03;3.63;;;16.90;99.90;;;;;;5072142;28;20466;-70
2021/06/03 07:41:52;;;;;;;4.07;3.30;;;17.00;99.90;;;;;;5075314;28;20855;-70
2021/06/03 07:44:19;;;;;;;4.70;3.30;;;17.00;99.90;;;;;;5084605;28;20490;-71
2021/06/03 07:46:46;;;;;;;5.17;4.23;;;17.10;99.90;;;;;;5092494;28;20467;-71
2021/06/03 07:49:13;;;;;;;3.77;3.40;;;17.10;99.90;;;;;;5092424;28;20429;-70
2021/06/03 07:51:41;;;;;;;4.70;3.73;;;17.10;99.90;;;;;;5092202;28;20434;-71
2021/06/03 07:54:08;;;;;;;3.10;2.80;;;17.10;99.90;;;;;;5091647;28;20511;-71
2021/06/03 07:56:35;;;;;;;4.90;3.60;;;17.10;99.90;;;;;;5092224;28;20990;-70
2021/06/03 07:59:04;;;;;;;4.00;3.63;;;17.00;99.90;;;;;;5092052;28;20967;-70
2021/06/03 08:01:31;;;;;;;5.40;3.47;;;16.90;99.90;;;;;;5092447;28;20441;-70
2021/06/03 08:03:57;;;;;;;3.23;2.93;;;16.90;99.90;;;;;;5092323;28;20427;-70
2021/06/03 08:06:24;;;;;;;4.80;3.80;;;16.80;99.90;;;;;;5092046;28;20528;-71
2021/06/03 08:08:51;;;;;;;4.60;4.20;;;16.70;99.90;;;;;;5091837;28;20433;-70
2021/06/03 08:11:17;;;;;;;4.33;3.83;;;16.70;99.90;;;;;;5092265;28;20924;-70
2021/06/03 08:13:44;;;;;;;3.83;3.53;;;16.80;99.90;;;;;;5092002;28;20429;-71
2021/06/03 08:16:12;;;;;;;4.43;3.80;;;16.80;99.90;;;;;;5072526;28;20430;-70
2021/06/03 08:18:39;;;;;;;6.17;3.43;;;16.80;99.90;;;;;;5071708;28;20462;-71
2021/06/03 08:21:08;;;;;;;4.57;3.60;;;16.90;99.90;;;;;;5071545;28;20483;-71
2021/06/03 08:23:35;;;;;;;4.50;3.87;;;17.00;99.90;;;;;;5077514;28;20444;-71
2021/06/03 08:26:03;;;;;;;4.93;4.00;;;17.10;99.90;;;;;;5081784;28;20446;-70
2021/06/03 08:28:30;;;;;;;4.90;3.90;;;17.10;99.90;;;;;;5071559;28;20450;-71
2021/06/03 08:30:59;;;;;;;4.37;3.63;;;17.20;99.90;;;;;;5071556;28;20507;-70
2021/06/03 08:33:28;;;;;;;4.87;4.00;;;17.30;99.90;;;;;;5071871;28;20426;-71
2021/06/03 08:35:56;;;;;;;6.53;4.43;;;17.40;99.90;;;;;;5071373;28;20421;-71
2021/06/03 08:38:23;;;;;;;5.43;4.33;;;17.40;99.90;;;;;;5071387;28;20481;-70
2021/06/03 08:40:53;;;;;;;5.27;4.50;;;17.50;99.90;;;;;;5078904;28;20448;-70
2021/06/03 08:43:21;;;;;;;4.73;4.20;;;17.50;99.90;;;;;;5083948;28;20451;-71
2021/06/03 08:45:49;;;;;;;6.37;5.17;;;17.60;99.90;;;;;;5092154;28;20848;-70
2021/06/03 08:48:16;;;;;;;4.53;4.00;;;17.70;99.90;;;;;;5093384;28;20445;-71
2021/06/03 08:50:46;;;;;;;5.30;4.60;;;17.80;99.90;;;;;;5095669;28;20487;-70
2021/06/03 08:53:14;;;;;;;4.47;4.07;;;17.80;99.90;;;;;;5096105;28;20810;-70
2021/06/03 08:58:27;;;;;;;5.70;3.70;;;17.80;99.90;;;;;;5095617;28;20571;-71
2021/06/03 09:00:56;;;;;;;4.97;4.47;;;17.80;99.90;;;;;;5095593;28;20953;-70
2021/06/03 09:03:24;;;;;;;5.50;4.90;;;17.70;99.90;;;;;;5095620;28;20425;-70
2021/06/03 09:05:52;;;;;;;5.17;4.67;;;17.80;99.90;;;;;;5095372;28;20432;-70
2021/06/03 09:08:23;;;;;;;4.67;4.20;;;17.70;99.90;;;;;;5095437;28;20455;-71
2021/06/03 09:10:52;;;;;;;5.00;3.97;;;17.80;99.90;;;;;;5095636;28;20425;-72
2021/06/03 09:13:20;;;;;;;4.47;4.07;;;17.80;99.90;;;;;;5091659;28;20857;-70
2021/06/03 09:15:49;;;;;;;4.70;4.17;;;17.70;99.90;;;;;;5075062;28;20462;-71
2021/06/03 09:18:26;;;;;;;4.60;4.10;;;17.90;99.90;;;;;;5074670;28;20497;-70
2021/06/03 09:20:54;;;;;;;3.90;3.20;;;17.90;99.90;;;;;;5074946;28;20433;-70
2021/06/03 09:23:30;;;;;;;4.10;3.70;;;18.10;99.90;;;;;;5074931;28;20437;-71
2021/06/03 09:25:58;;;;;;;6.10;3.83;;;18.30;99.90;;;;;;5075154;28;20701;-70
2021/06/03 09:28:28;;;;;;;4.90;4.10;;;18.40;99.90;;;;;;5074688;28;20446;-70
2021/06/03 09:31:07;;;;;;;10.03;4.10;;;18.60;99.90;;;;;;5074994;28;20495;-70
2021/06/03 09:33:49;;;;;;;4.13;3.70;;;18.80;99.90;;;;;;5074801;28;20487;-69
2021/06/03 09:36:20;;;;;;;3.67;3.37;;;18.80;99.90;;;;;;5074654;28;20481;-70
2021/06/03 09:38:56;;;;;;;3.70;3.30;;;18.90;99.90;;;;;;5074329;28;20535;-70
2021/06/03 09:41:24;;;;;;;6.50;3.80;;;19.30;99.90;;;;;;5087024;28;20444;-70
2021/06/03 09:44:09;;;;;;;3.97;3.37;;;19.60;99.90;;;;;;5086485;28;20926;-70
2021/06/03 09:46:38;;;;;;;3.83;2.67;;;19.90;99.90;;;;;;5074997;28;20446;-72
2021/06/03 09:49:06;;;;;;;3.50;3.10;;;20.10;99.90;;;;;;5074431;28;20447;-71
2021/06/03 09:51:37;;;;;;;4.57;2.77;;;20.10;99.90;;;;;;5074416;28;20937;-71
2021/06/03 09:54:07;;;;;;;2.80;2.60;;;20.30;99.90;;;;;;5074724;28;20483;-71
2021/06/03 09:56:36;;;;;;;5.43;2.83;;;20.50;99.90;;;;;;5074445;28;20506;-70
2021/06/03 09:59:06;;;;;;;7.43;3.00;;;20.80;99.90;;;;;;5073215;28;20484;-71
2021/06/03 10:01:42;;;;;;;2.40;2.20;;;21.00;99.90;;;;;;5074250;28;20873;-70
2021/06/03 10:04:09;;;;;;;2.60;2.40;;;21.40;99.90;;;;;;5074404;28;20422;-71
2021/06/03 10:06:56;;;;;;;7.00;2.80;;;21.50;99.90;;;;;;5073956;28;20442;-71
2021/06/03 10:09:46;;;;;;;4.17;2.60;;;21.70;99.90;;;;;;5074083;28;20430;-70
2021/06/03 10:12:24;;;;;;;4.80;2.93;;;22.00;99.90;;;;;;5093155;28;20486;-70
2021/06/03 10:14:53;;;;;;;3.27;2.97;;;21.70;99.90;;;;;;5077445;28;20426;-71
2021/06/03 10:17:21;;;;;;;2.60;2.40;;;21.50;99.90;;;;;;5074071;28;20958;-69
2021/06/03 10:19:51;;;;;;;2.57;2.30;;;21.70;99.90;;;;;;5073713;28;20554;-70
2021/06/03 10:22:25;;;;;;;3.20;2.00;;;21.90;99.90;;;;;;5073731;28;20938;-70
2021/06/03 10:24:57;;;;;;;2.77;2.20;;;22.00;99.90;;;;;;5087165;28;20449;-70
2021/06/03 10:27:26;;;;;;;6.67;2.97;;;22.00;99.90;;;;;;5080835;28;20458;-70
2021/06/03 10:29:53;;;;;;;2.40;2.20;;;22.20;99.90;;;;;;5073443;28;20446;-71
2021/06/03 10:32:22;;;;;;;2.63;2.40;;;22.40;99.90;;;;;;5073901;28;20426;-70
2021/06/03 10:34:51;;;;;;;3.63;2.47;;;22.80;99.90;;;;;;5073515;28;20483;-70
2021/06/03 10:37:18;;;;;;;3.83;2.57;;;23.10;99.90;;;;;;5073468;28;20807;-70
2021/06/03 10:39:48;;;;;;;3.60;2.03;;;23.00;99.90;;;;;;5073201;28;20886;-70
2021/06/03 10:42:17;;;;;;;2.27;1.67;;;22.80;99.90;;;;;;5073625;28;20425;-70
2021/06/03 10:44:45;;;;;;;2.50;1.97;;;22.90;99.90;;;;;;5073462;28;20429;-69
2021/06/03 10:47:13;;;;;;;3.00;1.80;;;22.80;99.90;;;;;;5073400;28;20503;-69
2021/06/03 10:49:40;;;;;;;3.53;2.20;;;22.80;99.90;;;;;;5073099;28;20468;-70
2021/06/03 10:52:09;;;;;;;1.93;1.63;;;22.80;99.90;;;;;;5073289;28;20786;-70
2021/06/03 10:54:44;;;;;;;2.70;1.60;;;22.20;99.90;;;;;;5084542;28;20428;-71
2021/06/03 10:57:14;;;;;;;2.93;1.97;;;22.30;99.90;;;;;;5081960;28;20462;-70
2021/06/03 10:59:42;;;;;;;3.90;1.83;;;22.50;99.90;;;;;;5072966;28;20972;-70
2021/06/03 11:02:10;;;;;;;4.40;2.00;;;22.50;99.90;;;;;;5073185;28;20505;-71
2021/06/03 11:04:38;;;;;;;2.40;2.00;;;22.70;99.90;;;;;;5073226;28;20786;-71
2021/06/03 11:07:06;;;;;;;1.80;1.70;;;23.00;99.90;;;;;;5072887;28;20499;-70
2021/06/03 11:09:35;;;;;;;2.57;1.83;;;23.20;99.90;;;;;;5072864;28;20772;-70
2021/06/03 11:12:20;;;;;;;3.13;2.30;;;23.40;99.90;;;;;;5073084;28;20430;-69
2021/06/03 11:15:09;;;;;;;3.20;1.97;;;23.40;99.90;;;;;;5073042;28;20483;-70
2021/06/03 11:18:01;;;;;;;2.77;2.00;;;23.40;99.90;;;;;;5072935;28;20464;-69
2021/06/03 11:20:50;;;;;;;3.23;2.50;;;23.20;99.90;;;;;;5072526;28;20477;-70
2021/06/03 11:23:57;;;;;;;1.93;1.83;;;23.40;99.90;;;;;;5068625;28;20499;-70
2021/06/03 11:26:49;;;;;;;2.20;2.00;;;23.40;99.90;;;;;;5085683;28;20432;-70
2021/06/03 11:29:20;;;;;;;2.00;1.60;;;23.60;99.90;;;;;;5091814;28;20425;-69
2021/06/03 11:31:49;;;;;;;2.47;2.27;;;23.50;99.90;;;;;;5088611;28;20516;-70
2021/06/03 11:34:18;;;;;;;2.93;1.60;;;23.50;99.90;;;;;;5072418;28;20461;-69
2021/06/03 11:36:56;;;;;;;1.57;1.40;;;23.60;99.90;;;;;;5089026;28;20547;-69
2021/06/03 11:39:38;;;;;;;3.80;3.40;;;23.70;99.90;;;;;;5072145;28;20488;-69
2021/06/03 11:42:24;;;;;;;1.73;1.63;;;23.80;99.90;;;;;;5072752;28;21146;-70
2021/06/03 11:45:16;;;;;;;1.77;1.50;;;23.70;99.90;;;;;;5071940;28;20946;-70
2021/06/03 11:48:01;;;;;;;2.50;1.67;;;23.90;99.90;;;;;;5072305;28;20449;-69
2021/06/03 11:50:53;;;;;;;2.20;1.50;;;24.10;99.90;;;;;;5072236;28;20414;-70
2021/06/03 11:53:23;;;;;;;1.63;1.50;;;24.20;99.90;;;;;;5070141;28;20525;-70
2021/06/03 11:55:52;;;;;;;5.43;2.47;;;24.50;99.90;;;;;;5072035;28;20841;-70
2021/06/03 11:58:23;;;;;;;1.53;1.40;;;24.30;99.90;;;;;;5071934;28;20449;-69
2021/06/03 12:00:53;;;;;;;2.30;2.00;;;24.30;99.90;;;;;;5072244;28;20529;-70
2021/06/03 12:03:25;;;;;;;2.17;1.80;;;24.40;99.90;;;;;;5072535;28;20791;-71
2021/06/03 12:05:56;;;;;;;3.53;1.63;;;24.60;99.90;;;;;;5081487;28;20459;-71
2021/06/03 12:08:47;;;;;;;3.00;2.10;;;24.90;99.90;;;;;;5079294;28;20815;-70
2021/06/03 12:11:19;;;;;;;1.57;1.47;;;25.10;99.90;;;;;;5072006;28;20909;-70
2021/06/03 12:13:47;;;;;;;4.40;1.60;;;25.20;99.90;;;;;;5072069;28;20505;-70
2021/06/03 12:16:15;;;;;;;1.80;1.50;;;25.30;99.90;;;;;;5071841;28;20525;-70
2021/06/03 12:18:44;;;;;;;2.23;1.67;;;25.20;99.90;;;;;;5071623;28;21032;-69
2021/06/03 12:21:13;;;;;;;2.23;1.50;;;25.40;99.90;;;;;;5071790;28;20422;-70
2021/06/03 12:23:49;;;;;;;1.80;1.50;;;25.30;99.90;;;;;;5071387;28;20477;-70
2021/06/03 12:26:18;;;;;;;1.93;1.30;;;25.50;99.90;;;;;;5087084;28;20514;-70
2021/06/03 12:28:46;;;;;;;3.00;1.20;;;25.50;99.90;;;;;;5075729;28;20426;-69
2021/06/03 12:31:22;;;;;;;1.80;1.40;;;25.60;99.90;;;;;;5071733;28;20838;-70
2021/06/03 12:33:49;;;;;;;2.70;1.90;;;25.60;99.90;;;;;;5071685;28;20418;-70
2021/06/03 12:36:16;;;;;;;1.90;1.43;;;25.80;99.90;;;;;;5071735;28;20418;-69
2021/06/03 12:38:45;;;;;;;2.80;1.47;;;25.80;99.90;;;;;;5071560;28;20473;-70
2021/06/03 12:41:27;;;;;;;1.93;1.80;;;26.00;99.90;;;;;;5071334;28;20532;-70
2021/06/03 12:43:58;;;;;;;3.80;1.90;;;26.20;99.90;;;;;;5071601;28;20422;-70
2021/06/03 12:46:34;;;;;;;2.00;1.37;;;26.30;99.90;;;;;;5071630;28;20522;-69
2021/06/03 12:49:09;;;;;;;2.03;1.43;;;26.30;99.90;;;;;;5071531;28;20428;-70
2021/06/03 12:51:45;;;;;;;5.33;1.80;;;26.20;99.90;;;;;;5071574;28;20491;-70
2021/06/03 12:54:12;;;;;;;2.03;1.50;;;26.50;99.90;;;;;;5071669;28;20832;-70
2021/06/03 12:56:39;;;;;;;3.73;1.60;;;26.80;99.90;;;;;;5090025;28;20475;-69
2021/06/03 12:59:19;;;;;;;1.83;1.33;;;26.70;99.90;;;;;;5072447;28;20474;-70
2021/06/03 13:02:01;;;;;;;4.10;1.10;;;26.60;99.90;;;;;;5071493;28;20430;-70
2021/06/03 13:04:35;;;;;;;3.30;1.80;;;26.90;99.80;;;;;;5071610;28;20501;-71
2021/06/03 13:07:03;;;;;;;3.33;1.30;;;26.80;98.30;;;;;;5071406;28;20794;-70